sensor_id;sensor_type;location;lat;lon;timestamp;P1;durP1;ratioP1;P2;durP2;ratioP2
4857;SDS011;58975;51.978;8.472;2022-12-26T00:03:12;36.35;;;18.77;;
4857;SDS011;58975;51.978;8.472;2022-12-26T00:08:08;42.42;;;20.88;;
4857;SDS011;58975;51.978;8.472;2022-12-26T00:13:05;33.78;;;19.98;;
4857;SDS011;58975;51.978;8.472;2022-12-26T00:18:21;36.35;;;19.50;;
4857;SDS011;58975;51.978;8.472;2022-12-26T00:23:18;36.22;;;18.95;;
4857;SDS011;58975;51.978;8.472;2022-12-26T00:28:14;33.85;;;18.95;;
4857;SDS011;58975;51.978;8.472;2022-12-26T00:33:10;28.27;;;17.08;;
4857;SDS011;58975;51.978;8.472;2022-12-26T00:38:07;31.48;;;17.30;;
4857;SDS011;58975;51.978;8.472;2022-12-26T00:43:03;33.22;;;18.90;;
4857;SDS011;58975;51.978;8.472;2022-12-26T00:48:00;30.73;;;17.88;;
4857;SDS011;58975;51.978;8.472;2022-12-26T00:52:56;32.00;;;18.08;;
4857;SDS011;58975;51.978;8.472;2022-12-26T00:57:52;31.95;;;18.45;;
4857;SDS011;58975;51.978;8.472;2022-12-26T01:02:49;27.13;;;16.38;;
4857;SDS011;58975;51.978;8.472;2022-12-26T01:07:46;27.92;;;15.43;;
4857;SDS011;58975;51.978;8.472;2022-12-26T01:13:02;30.63;;;16.00;;
4857;SDS011;58975;51.978;8.472;2022-12-26T01:17:59;28.35;;;15.80;;
4857;SDS011;58975;51.978;8.472;2022-12-26T01:22:56;31.85;;;17.73;;
4857;SDS011;58975;51.978;8.472;2022-12-26T01:27:52;34.72;;;17.80;;
4857;SDS011;58975;51.978;8.472;2022-12-26T01:32:49;30.52;;;17.23;;
4857;SDS011;58975;51.978;8.472;2022-12-26T01:37:45;28.90;;;17.55;;
4857;SDS011;58975;51.978;8.472;2022-12-26T01:42:42;30.20;;;17.27;;
4857;SDS011;58975;51.978;8.472;2022-12-26T01:47:42;34.42;;;18.27;;
4857;SDS011;58975;51.978;8.472;2022-12-26T01:52:44;32.45;;;18.00;;
4857;SDS011;58975;51.978;8.472;2022-12-26T01:57:44;31.75;;;18.00;;
4857;SDS011;58975;51.978;8.472;2022-12-26T02:02:45;34.15;;;19.67;;
4857;SDS011;58975;51.978;8.472;2022-12-26T02:08:05;34.33;;;17.63;;
4857;SDS011;58975;51.978;8.472;2022-12-26T02:13:04;33.60;;;19.63;;
4857;SDS011;58975;51.978;8.472;2022-12-26T02:18:01;31.45;;;18.60;;
4857;SDS011;58975;51.978;8.472;2022-12-26T02:23:10;32.63;;;18.20;;
4857;SDS011;58975;51.978;8.472;2022-12-26T02:44:42;27.10;;;16.13;;
4857;SDS011;58975;51.978;8.472;2022-12-26T02:55:49;28.20;;;16.30;;
4857;SDS011;58975;51.978;8.472;2022-12-26T03:01:23;31.50;;;17.67;;
4857;SDS011;58975;51.978;8.472;2022-12-26T03:06:45;28.30;;;16.65;;
4857;SDS011;58975;51.978;8.472;2022-12-26T03:12:22;31.08;;;17.00;;
4857;SDS011;58975;51.978;8.472;2022-12-26T03:17:42;29.02;;;16.98;;
4857;SDS011;58975;51.978;8.472;2022-12-26T03:22:49;31.52;;;17.88;;
4857;SDS011;58975;51.978;8.472;2022-12-26T03:27:49;32.45;;;17.67;;
4857;SDS011;58975;51.978;8.472;2022-12-26T03:32:46;29.02;;;17.13;;
4857;SDS011;58975;51.978;8.472;2022-12-26T03:37:45;30.77;;;17.50;;
4857;SDS011;58975;51.978;8.472;2022-12-26T03:42:59;33.85;;;18.02;;
4857;SDS011;58975;51.978;8.472;2022-12-26T03:48:30;33.13;;;18.48;;
4857;SDS011;58975;51.978;8.472;2022-12-26T03:53:49;34.67;;;19.15;;
4857;SDS011;58975;51.978;8.472;2022-12-26T03:59:13;35.90;;;19.00;;
4857;SDS011;58975;51.978;8.472;2022-12-26T04:04:35;35.17;;;16.83;;
4857;SDS011;58975;51.978;8.472;2022-12-26T04:09:58;34.00;;;17.48;;
4857;SDS011;58975;51.978;8.472;2022-12-26T04:26:39;37.55;;;18.80;;
4857;SDS011;58975;51.978;8.472;2022-12-26T04:32:03;33.28;;;18.50;;
4857;SDS011;58975;51.978;8.472;2022-12-26T04:42:44;32.67;;;17.48;;
4857;SDS011;58975;51.978;8.472;2022-12-26T04:48:21;34.93;;;18.53;;
4857;SDS011;58975;51.978;8.472;2022-12-26T04:53:36;36.10;;;17.98;;
4857;SDS011;58975;51.978;8.472;2022-12-26T04:58:33;39.08;;;18.48;;
4857;SDS011;58975;51.978;8.472;2022-12-26T05:03:29;35.38;;;18.50;;
4857;SDS011;58975;51.978;8.472;2022-12-26T05:08:45;32.28;;;17.02;;
4857;SDS011;58975;51.978;8.472;2022-12-26T05:14:01;31.95;;;17.08;;
4857;SDS011;58975;51.978;8.472;2022-12-26T05:18:57;31.25;;;18.17;;
4857;SDS011;58975;51.978;8.472;2022-12-26T05:24:13;33.92;;;16.52;;
4857;SDS011;58975;51.978;8.472;2022-12-26T05:29:28;31.60;;;17.85;;
4857;SDS011;58975;51.978;8.472;2022-12-26T05:34:24;33.72;;;17.50;;
4857;SDS011;58975;51.978;8.472;2022-12-26T05:39:21;33.05;;;17.75;;
4857;SDS011;58975;51.978;8.472;2022-12-26T05:44:18;27.60;;;15.20;;
4857;SDS011;58975;51.978;8.472;2022-12-26T05:49:14;29.38;;;16.63;;
4857;SDS011;58975;51.978;8.472;2022-12-26T05:54:10;27.52;;;15.73;;
4857;SDS011;58975;51.978;8.472;2022-12-26T05:59:07;22.83;;;14.18;;
4857;SDS011;58975;51.978;8.472;2022-12-26T06:04:04;22.47;;;13.20;;
4857;SDS011;58975;51.978;8.472;2022-12-26T06:09:01;23.30;;;13.70;;
4857;SDS011;58975;51.978;8.472;2022-12-26T06:13:57;21.42;;;12.70;;
4857;SDS011;58975;51.978;8.472;2022-12-26T06:18:55;22.85;;;13.05;;
4857;SDS011;58975;51.978;8.472;2022-12-26T06:23:51;19.67;;;12.52;;
4857;SDS011;58975;51.978;8.472;2022-12-26T06:28:48;20.58;;;12.27;;
4857;SDS011;58975;51.978;8.472;2022-12-26T06:33:44;17.98;;;11.55;;
4857;SDS011;58975;51.978;8.472;2022-12-26T06:38:41;21.58;;;12.18;;
4857;SDS011;58975;51.978;8.472;2022-12-26T06:43:38;23.48;;;12.82;;
4857;SDS011;58975;51.978;8.472;2022-12-26T06:48:35;20.73;;;12.98;;
4857;SDS011;58975;51.978;8.472;2022-12-26T06:53:35;25.20;;;13.68;;
4857;SDS011;58975;51.978;8.472;2022-12-26T06:58:31;28.90;;;13.73;;
4857;SDS011;58975;51.978;8.472;2022-12-26T07:03:27;20.85;;;12.05;;
4857;SDS011;58975;51.978;8.472;2022-12-26T07:08:24;20.25;;;12.50;;
4857;SDS011;58975;51.978;8.472;2022-12-26T07:13:20;22.10;;;13.35;;
4857;SDS011;58975;51.978;8.472;2022-12-26T07:18:17;19.52;;;12.60;;
4857;SDS011;58975;51.978;8.472;2022-12-26T07:23:13;23.08;;;13.25;;
4857;SDS011;58975;51.978;8.472;2022-12-26T07:28:10;17.40;;;11.70;;
4857;SDS011;58975;51.978;8.472;2022-12-26T07:33:06;19.90;;;11.75;;
4857;SDS011;58975;51.978;8.472;2022-12-26T07:38:03;18.50;;;11.93;;
4857;SDS011;58975;51.978;8.472;2022-12-26T07:42:59;18.48;;;12.18;;
4857;SDS011;58975;51.978;8.472;2022-12-26T07:47:56;17.38;;;11.18;;
4857;SDS011;58975;51.978;8.472;2022-12-26T07:52:53;18.57;;;11.80;;
4857;SDS011;58975;51.978;8.472;2022-12-26T07:57:50;23.45;;;12.00;;
4857;SDS011;58975;51.978;8.472;2022-12-26T08:02:48;19.88;;;11.60;;
4857;SDS011;58975;51.978;8.472;2022-12-26T08:12:43;18.85;;;12.45;;
4857;SDS011;58975;51.978;8.472;2022-12-26T08:17:39;23.98;;;13.35;;
4857;SDS011;58975;51.978;8.472;2022-12-26T08:22:36;24.10;;;13.65;;
4857;SDS011;58975;51.978;8.472;2022-12-26T08:27:32;21.90;;;13.90;;
4857;SDS011;58975;51.978;8.472;2022-12-26T08:32:29;20.13;;;13.65;;
4857;SDS011;58975;51.978;8.472;2022-12-26T08:37:25;22.08;;;13.68;;
4857;SDS011;58975;51.978;8.472;2022-12-26T08:42:22;22.70;;;13.38;;
4857;SDS011;58975;51.978;8.472;2022-12-26T08:47:18;23.10;;;13.40;;
4857;SDS011;58975;51.978;8.472;2022-12-26T08:52:14;21.80;;;12.95;;
4857;SDS011;58975;51.978;8.472;2022-12-26T08:57:11;18.95;;;12.43;;
4857;SDS011;58975;51.978;8.472;2022-12-26T09:02:08;23.90;;;12.10;;
4857;SDS011;58975;51.978;8.472;2022-12-26T09:07:07;15.30;;;10.00;;
4857;SDS011;58975;51.978;8.472;2022-12-26T09:12:04;14.98;;;10.02;;
4857;SDS011;58975;51.978;8.472;2022-12-26T09:17:00;13.65;;;9.00;;
4857;SDS011;58975;51.978;8.472;2022-12-26T09:21:57;12.43;;;8.68;;
4857;SDS011;58975;51.978;8.472;2022-12-26T09:27:13;10.52;;;7.85;;
4857;SDS011;58975;51.978;8.472;2022-12-26T09:32:09;11.98;;;7.40;;
4857;SDS011;58975;51.978;8.472;2022-12-26T09:37:06;10.02;;;6.63;;
4857;SDS011;58975;51.978;8.472;2022-12-26T09:47:32;9.68;;;6.63;;
4857;SDS011;58975;51.978;8.472;2022-12-26T09:52:40;10.18;;;5.82;;
4857;SDS011;58975;51.978;8.472;2022-12-26T09:57:45;7.57;;;5.50;;
4857;SDS011;58975;51.978;8.472;2022-12-26T10:02:47;9.60;;;5.60;;
4857;SDS011;58975;51.978;8.472;2022-12-26T10:07:53;7.72;;;5.70;;
4857;SDS011;58975;51.978;8.472;2022-12-26T10:13:19;7.55;;;4.60;;
4857;SDS011;58975;51.978;8.472;2022-12-26T10:23:48;6.30;;;3.13;;
4857;SDS011;58975;51.978;8.472;2022-12-26T10:33:57;5.65;;;2.30;;
4857;SDS011;58975;51.978;8.472;2022-12-26T10:38:56;4.20;;;2.35;;
4857;SDS011;58975;51.978;8.472;2022-12-26T10:43:54;6.25;;;2.20;;
4857;SDS011;58975;51.978;8.472;2022-12-26T10:48:51;4.85;;;2.15;;
4857;SDS011;58975;51.978;8.472;2022-12-26T10:53:49;3.10;;;2.33;;
4857;SDS011;58975;51.978;8.472;2022-12-26T10:58:58;9.68;;;2.67;;
4857;SDS011;58975;51.978;8.472;2022-12-26T11:03:57;5.07;;;2.75;;
4857;SDS011;58975;51.978;8.472;2022-12-26T11:08:55;13.32;;;2.75;;
4857;SDS011;58975;51.978;8.472;2022-12-26T11:13:53;2.47;;;2.00;;
4857;SDS011;58975;51.978;8.472;2022-12-26T11:18:57;6.50;;;2.47;;
4857;SDS011;58975;51.978;8.472;2022-12-26T11:29:13;2.67;;;1.70;;
4857;SDS011;58975;51.978;8.472;2022-12-26T11:34:12;4.88;;;1.73;;
4857;SDS011;58975;51.978;8.472;2022-12-26T11:39:19;2.13;;;1.60;;
4857;SDS011;58975;51.978;8.472;2022-12-26T11:44:29;5.95;;;2.35;;
4857;SDS011;58975;51.978;8.472;2022-12-26T11:49:30;6.65;;;2.20;;
4857;SDS011;58975;51.978;8.472;2022-12-26T11:54:32;4.68;;;1.95;;
4857;SDS011;58975;51.978;8.472;2022-12-26T11:59:30;2.05;;;1.30;;
4857;SDS011;58975;51.978;8.472;2022-12-26T12:04:27;2.00;;;1.40;;
4857;SDS011;58975;51.978;8.472;2022-12-26T12:09:33;3.17;;;1.52;;
4857;SDS011;58975;51.978;8.472;2022-12-26T12:30:33;5.20;;;2.50;;
4857;SDS011;58975;51.978;8.472;2022-12-26T12:35:52;4.22;;;2.50;;
4857;SDS011;58975;51.978;8.472;2022-12-26T12:41:02;3.75;;;2.30;;
4857;SDS011;58975;51.978;8.472;2022-12-26T12:46:04;5.05;;;2.60;;
4857;SDS011;58975;51.978;8.472;2022-12-26T12:51:16;6.60;;;2.80;;
4857;SDS011;58975;51.978;8.472;2022-12-26T13:01:28;5.15;;;2.65;;
4857;SDS011;58975;51.978;8.472;2022-12-26T13:06:38;6.32;;;2.30;;
4857;SDS011;58975;51.978;8.472;2022-12-26T13:11:39;4.00;;;2.67;;
4857;SDS011;58975;51.978;8.472;2022-12-26T13:16:47;3.23;;;2.60;;
4857;SDS011;58975;51.978;8.472;2022-12-26T13:21:51;4.03;;;2.70;;
4857;SDS011;58975;51.978;8.472;2022-12-26T13:26:55;4.20;;;2.22;;
4857;SDS011;58975;51.978;8.472;2022-12-26T13:31:56;2.78;;;1.42;;
4857;SDS011;58975;51.978;8.472;2022-12-26T13:36:55;4.03;;;1.35;;
4857;SDS011;58975;51.978;8.472;2022-12-26T13:52:34;3.58;;;2.00;;
4857;SDS011;58975;51.978;8.472;2022-12-26T13:57:39;6.97;;;2.10;;
4857;SDS011;58975;51.978;8.472;2022-12-26T14:02:42;5.68;;;1.00;;
4857;SDS011;58975;51.978;8.472;2022-12-26T14:08:15;8.05;;;1.67;;
4857;SDS011;58975;51.978;8.472;2022-12-26T14:23:35;8.50;;;1.15;;
4857;SDS011;58975;51.978;8.472;2022-12-26T14:49:35;5.13;;;1.02;;
4857;SDS011;58975;51.978;8.472;2022-12-26T14:54:34;5.20;;;1.38;;
4857;SDS011;58975;51.978;8.472;2022-12-26T14:59:33;2.38;;;1.50;;
4857;SDS011;58975;51.978;8.472;2022-12-26T15:41:45;7.55;;;1.05;;
4857;SDS011;58975;51.978;8.472;2022-12-26T15:46:43;8.15;;;1.30;;
4857;SDS011;58975;51.978;8.472;2022-12-26T15:51:53;4.65;;;0.82;;
4857;SDS011;58975;51.978;8.472;2022-12-26T15:56:58;9.50;;;1.27;;
4857;SDS011;58975;51.978;8.472;2022-12-26T16:01:59;4.07;;;1.00;;
4857;SDS011;58975;51.978;8.472;2022-12-26T16:11:59;5.72;;;0.93;;
4857;SDS011;58975;51.978;8.472;2022-12-26T16:17:16;7.22;;;1.10;;
4857;SDS011;58975;51.978;8.472;2022-12-26T16:22:34;6.30;;;1.05;;
4857;SDS011;58975;51.978;8.472;2022-12-26T16:27:44;5.72;;;1.15;;
4857;SDS011;58975;51.978;8.472;2022-12-26T16:32:43;5.03;;;1.00;;
4857;SDS011;58975;51.978;8.472;2022-12-26T16:37:40;5.72;;;1.13;;
4857;SDS011;58975;51.978;8.472;2022-12-26T16:42:37;9.70;;;1.58;;
4857;SDS011;58975;51.978;8.472;2022-12-26T16:47:37;5.10;;;1.13;;
4857;SDS011;58975;51.978;8.472;2022-12-26T16:52:35;7.05;;;1.80;;
4857;SDS011;58975;51.978;8.472;2022-12-26T16:57:41;9.10;;;1.38;;
4857;SDS011;58975;51.978;8.472;2022-12-26T17:02:38;7.70;;;2.13;;
4857;SDS011;58975;51.978;8.472;2022-12-26T17:07:42;6.35;;;2.50;;
4857;SDS011;58975;51.978;8.472;2022-12-26T17:12:42;5.22;;;1.42;;
4857;SDS011;58975;51.978;8.472;2022-12-26T17:17:42;4.82;;;1.92;;
4857;SDS011;58975;51.978;8.472;2022-12-26T17:27:37;4.55;;;1.25;;
4857;SDS011;58975;51.978;8.472;2022-12-26T17:32:42;9.23;;;2.20;;
4857;SDS011;58975;51.978;8.472;2022-12-26T17:37:40;3.70;;;1.20;;
4857;SDS011;58975;51.978;8.472;2022-12-26T17:42:45;5.93;;;2.65;;
4857;SDS011;58975;51.978;8.472;2022-12-26T17:47:46;7.05;;;1.73;;
4857;SDS011;58975;51.978;8.472;2022-12-26T17:52:46;4.35;;;1.58;;
4857;SDS011;58975;51.978;8.472;2022-12-26T17:57:43;5.82;;;1.65;;
4857;SDS011;58975;51.978;8.472;2022-12-26T18:02:39;4.60;;;1.45;;
4857;SDS011;58975;51.978;8.472;2022-12-26T18:07:35;12.02;;;1.75;;
4857;SDS011;58975;51.978;8.472;2022-12-26T18:12:32;7.45;;;2.13;;
4857;SDS011;58975;51.978;8.472;2022-12-26T18:17:30;5.45;;;1.95;;
4857;SDS011;58975;51.978;8.472;2022-12-26T18:22:28;8.23;;;2.03;;
4857;SDS011;58975;51.978;8.472;2022-12-26T18:27:27;10.57;;;2.13;;
4857;SDS011;58975;51.978;8.472;2022-12-26T18:32:30;6.57;;;1.65;;
4857;SDS011;58975;51.978;8.472;2022-12-26T18:37:28;7.57;;;1.73;;
4857;SDS011;58975;51.978;8.472;2022-12-26T18:42:25;6.47;;;1.63;;
4857;SDS011;58975;51.978;8.472;2022-12-26T18:47:22;12.75;;;2.38;;
4857;SDS011;58975;51.978;8.472;2022-12-26T18:52:18;2.92;;;2.28;;
4857;SDS011;58975;51.978;8.472;2022-12-26T18:57:17;8.57;;;2.30;;
4857;SDS011;58975;51.978;8.472;2022-12-26T19:02:16;11.50;;;2.03;;
4857;SDS011;58975;51.978;8.472;2022-12-26T19:07:15;4.53;;;2.60;;
4857;SDS011;58975;51.978;8.472;2022-12-26T19:12:12;6.45;;;1.73;;
4857;SDS011;58975;51.978;8.472;2022-12-26T19:17:09;6.32;;;1.92;;
4857;SDS011;58975;51.978;8.472;2022-12-26T19:22:06;8.02;;;3.20;;
4857;SDS011;58975;51.978;8.472;2022-12-26T19:27:03;10.82;;;2.60;;
4857;SDS011;58975;51.978;8.472;2022-12-26T19:31:59;10.20;;;2.30;;
4857;SDS011;58975;51.978;8.472;2022-12-26T19:36:55;7.80;;;2.47;;
4857;SDS011;58975;51.978;8.472;2022-12-26T19:41:52;9.00;;;2.67;;
4857;SDS011;58975;51.978;8.472;2022-12-26T19:46:48;7.97;;;2.30;;
4857;SDS011;58975;51.978;8.472;2022-12-26T19:52:05;11.30;;;3.13;;
4857;SDS011;58975;51.978;8.472;2022-12-26T19:57:01;10.57;;;3.03;;
4857;SDS011;58975;51.978;8.472;2022-12-26T20:01:57;6.25;;;2.40;;
4857;SDS011;58975;51.978;8.472;2022-12-26T20:06:57;12.75;;;2.58;;
4857;SDS011;58975;51.978;8.472;2022-12-26T20:11:54;15.75;;;3.38;;
4857;SDS011;58975;51.978;8.472;2022-12-26T20:16:55;7.53;;;2.40;;
4857;SDS011;58975;51.978;8.472;2022-12-26T20:22:03;9.80;;;2.88;;
4857;SDS011;58975;51.978;8.472;2022-12-26T20:27:00;12.05;;;2.28;;
4857;SDS011;58975;51.978;8.472;2022-12-26T20:31:57;13.68;;;3.22;;
4857;SDS011;58975;51.978;8.472;2022-12-26T20:36:53;12.10;;;3.67;;
4857;SDS011;58975;51.978;8.472;2022-12-26T20:41:50;11.10;;;3.45;;
4857;SDS011;58975;51.978;8.472;2022-12-26T20:46:46;9.65;;;2.45;;
4857;SDS011;58975;51.978;8.472;2022-12-26T20:51:43;19.70;;;2.25;;
4857;SDS011;58975;51.978;8.472;2022-12-26T20:56:40;9.23;;;2.25;;
4857;SDS011;58975;51.978;8.472;2022-12-26T21:01:37;5.20;;;2.33;;
4857;SDS011;58975;51.978;8.472;2022-12-26T21:06:35;6.13;;;1.80;;
4857;SDS011;58975;51.978;8.472;2022-12-26T21:11:34;6.25;;;1.88;;
4857;SDS011;58975;51.978;8.472;2022-12-26T21:16:34;6.32;;;1.58;;
4857;SDS011;58975;51.978;8.472;2022-12-26T21:21:33;7.40;;;2.15;;
4857;SDS011;58975;51.978;8.472;2022-12-26T21:31:30;8.68;;;2.08;;
4857;SDS011;58975;51.978;8.472;2022-12-26T21:36:27;11.50;;;1.95;;
4857;SDS011;58975;51.978;8.472;2022-12-26T21:41:24;12.75;;;2.63;;
4857;SDS011;58975;51.978;8.472;2022-12-26T21:46:21;5.47;;;2.00;;
4857;SDS011;58975;51.978;8.472;2022-12-26T21:51:18;11.27;;;2.10;;
4857;SDS011;58975;51.978;8.472;2022-12-26T21:56:16;11.57;;;2.70;;
4857;SDS011;58975;51.978;8.472;2022-12-26T22:01:17;5.38;;;1.80;;
4857;SDS011;58975;51.978;8.472;2022-12-26T22:06:15;15.05;;;1.60;;
4857;SDS011;58975;51.978;8.472;2022-12-26T22:11:15;3.88;;;1.65;;
4857;SDS011;58975;51.978;8.472;2022-12-26T22:16:31;5.72;;;1.98;;
4857;SDS011;58975;51.978;8.472;2022-12-26T22:21:28;13.82;;;1.92;;
4857;SDS011;58975;51.978;8.472;2022-12-26T22:26:26;3.58;;;1.23;;
4857;SDS011;58975;51.978;8.472;2022-12-26T22:31:28;4.93;;;1.75;;
4857;SDS011;58975;51.978;8.472;2022-12-26T22:36:27;6.20;;;1.40;;
4857;SDS011;58975;51.978;8.472;2022-12-26T22:41:25;7.10;;;1.58;;
4857;SDS011;58975;51.978;8.472;2022-12-26T22:46:22;3.08;;;1.45;;
4857;SDS011;58975;51.978;8.472;2022-12-26T22:51:20;12.90;;;2.90;;
4857;SDS011;58975;51.978;8.472;2022-12-26T22:56:19;11.65;;;2.17;;
4857;SDS011;58975;51.978;8.472;2022-12-26T23:01:16;7.93;;;2.67;;
4857;SDS011;58975;51.978;8.472;2022-12-26T23:06:24;9.15;;;3.15;;
4857;SDS011;58975;51.978;8.472;2022-12-26T23:11:27;9.05;;;3.60;;
4857;SDS011;58975;51.978;8.472;2022-12-26T23:16:37;11.77;;;3.55;;
4857;SDS011;58975;51.978;8.472;2022-12-26T23:21:37;7.93;;;2.90;;
4857;SDS011;58975;51.978;8.472;2022-12-26T23:26:34;19.70;;;3.28;;
4857;SDS011;58975;51.978;8.472;2022-12-26T23:31:31;8.77;;;2.60;;
4857;SDS011;58975;51.978;8.472;2022-12-26T23:36:27;11.35;;;3.60;;
4857;SDS011;58975;51.978;8.472;2022-12-26T23:41:24;8.80;;;2.35;;
4857;SDS011;58975;51.978;8.472;2022-12-26T23:46:20;9.18;;;2.72;;
4857;SDS011;58975;51.978;8.472;2022-12-26T23:51:16;16.38;;;2.65;;
4857;SDS011;58975;51.978;8.472;2022-12-26T23:56:13;7.82;;;2.25;;
